Time;durP1;ratioP1;P1;durP2;ratioP2;P2;SDS_P1;SDS_P2;PMS_P1;PMS_P2;Temp;Humidity;BMP_temperature;BMP_pressure;BME280_temperature;BME280_humidity;BME280_pressure;Samples;Min_cycle;Max_cycle;Signal;HPM_P1;HPM_P2
2022/06/06 00:00:12;;;;;;;2.60;0.40;;;16.80;99.90;;;;;;5139502;27;20501;-73
2022/06/06 00:02:40;;;;;;;1.23;0.43;;;16.70;99.90;;;;;;5138930;27;20498;-74
2022/06/06 00:05:14;;;;;;;0.90;0.50;;;16.70;99.90;;;;;;5138301;27;20444;-74
2022/06/06 00:07:41;;;;;;;0.80;0.50;;;16.60;99.90;;;;;;5138618;27;20504;-73
2022/06/06 00:10:09;;;;;;;0.90;0.50;;;16.70;99.90;;;;;;5138376;27;20448;-74
2022/06/06 00:12:36;;;;;;;1.73;0.50;;;16.70;99.90;;;;;;5137536;27;20443;-74
2022/06/06 00:15:04;;;;;;;1.00;0.60;;;16.80;99.90;;;;;;5136558;27;20488;-73
2022/06/06 00:17:31;;;;;;;0.73;0.40;;;16.80;99.90;;;;;;5139651;27;20444;-73
2022/06/06 00:19:58;;;;;;;0.80;0.50;;;16.80;99.90;;;;;;5139054;27;20451;-74
2022/06/06 00:22:26;;;;;;;0.77;0.50;;;16.90;99.90;;;;;;5136965;27;20459;-73
2022/06/06 00:24:54;;;;;;;1.50;0.60;;;16.90;99.90;;;;;;5138390;27;20813;-73
2022/06/06 00:27:21;;;;;;;0.60;0.40;;;16.90;99.90;;;;;;5139699;27;20443;-73
2022/06/06 00:29:49;;;;;;;0.80;0.60;;;16.80;99.90;;;;;;5139545;27;21178;-73
2022/06/06 00:35:03;;;;;;;0.77;0.60;;;16.80;99.90;;;;;;5137938;27;20968;-74
2022/06/06 00:37:33;;;;;;;0.80;0.40;;;16.80;99.90;;;;;;5139248;27;20504;-74
2022/06/06 00:40:02;;;;;;;1.10;0.50;;;16.80;99.90;;;;;;5139807;27;20588;-74
2022/06/06 00:42:31;;;;;;;0.80;0.50;;;16.80;99.90;;;;;;5138939;27;20535;-73
2022/06/06 00:45:22;;;;;;;1.03;0.60;;;16.80;99.90;;;;;;5139618;27;20447;-73
2022/06/06 00:47:54;;;;;;;0.80;0.50;;;16.70;99.90;;;;;;5139417;27;20770;-73
2022/06/06 00:50:25;;;;;;;1.00;0.60;;;16.70;99.90;;;;;;5138810;27;20802;-73
2022/06/06 00:52:55;;;;;;;0.93;0.60;;;16.80;99.90;;;;;;5138012;27;20447;-73
2022/06/06 00:55:25;;;;;;;0.80;0.60;;;16.80;99.90;;;;;;5138155;27;20472;-73
2022/06/06 00:57:56;;;;;;;0.70;0.50;;;16.70;99.90;;;;;;5138794;27;20444;-73
2022/06/06 01:00:24;;;;;;;1.23;0.60;;;16.70;99.90;;;;;;5138583;27;21004;-73
2022/06/06 01:02:56;;;;;;;0.90;0.60;;;16.70;99.90;;;;;;5137436;27;20830;-73
2022/06/06 01:05:24;;;;;;;0.70;0.50;;;16.60;99.90;;;;;;5122710;27;20472;-73
2022/06/06 01:07:51;;;;;;;0.50;0.40;;;16.50;99.90;;;;;;5135261;27;20509;-73
2022/06/06 01:10:21;;;;;;;0.77;0.50;;;16.50;99.90;;;;;;5137514;27;20810;-73
2022/06/06 01:12:50;;;;;;;0.70;0.40;;;16.50;99.90;;;;;;5137880;27;20818;-73
2022/06/06 01:15:22;;;;;;;0.70;0.50;;;16.40;99.90;;;;;;5137213;27;20536;-72
2022/06/06 01:17:57;;;;;;;0.87;0.53;;;16.30;99.90;;;;;;5138653;27;20443;-73
2022/06/06 01:20:50;;;;;;;0.70;0.60;;;16.10;99.90;;;;;;5138494;27;20538;-73
2022/06/06 01:23:47;;;;;;;0.60;0.50;;;16.10;99.90;;;;;;5138297;27;20898;-73
2022/06/06 01:26:35;;;;;;;0.90;0.70;;;16.10;99.90;;;;;;5113598;27;20451;-72
2022/06/06 01:29:08;;;;;;;0.70;0.40;;;16.00;99.90;;;;;;5137879;27;20448;-73
2022/06/06 01:31:43;;;;;;;1.87;0.70;;;16.10;99.90;;;;;;5136878;27;20504;-73
2022/06/06 01:34:13;;;;;;;0.90;0.50;;;16.10;99.90;;;;;;5137656;27;20487;-73
2022/06/06 01:36:41;;;;;;;0.63;0.47;;;16.00;99.90;;;;;;5137571;27;20516;-73
2022/06/06 01:39:12;;;;;;;3.30;0.60;;;16.00;99.90;;;;;;5136650;27;20517;-73
2022/06/06 01:41:53;;;;;;;0.70;0.50;;;16.00;99.90;;;;;;5136580;27;20471;-72
2022/06/06 01:44:29;;;;;;;2.90;0.67;;;16.20;99.90;;;;;;5135700;27;20451;-73
2022/06/06 01:46:59;;;;;;;0.77;0.50;;;16.20;99.90;;;;;;5136964;27;20883;-73
2022/06/06 01:49:27;;;;;;;0.70;0.50;;;16.10;99.90;;;;;;5137139;27;20460;-73
2022/06/06 01:52:02;;;;;;;0.80;0.60;;;16.10;99.90;;;;;;5136847;27;20509;-73
2022/06/06 01:54:30;;;;;;;1.17;0.50;;;16.30;99.90;;;;;;5135769;27;20483;-73
2022/06/06 01:56:59;;;;;;;1.33;0.60;;;16.30;99.90;;;;;;5136276;27;20443;-73
2022/06/06 01:59:27;;;;;;;0.90;0.60;;;16.30;99.90;;;;;;5135775;27;20460;-73
2022/06/06 02:01:54;;;;;;;0.63;0.47;;;16.30;99.90;;;;;;5135515;27;20960;-72
2022/06/06 02:04:21;;;;;;;1.67;0.77;;;16.30;99.90;;;;;;5135245;27;20448;-73
2022/06/06 02:06:48;;;;;;;0.90;0.60;;;16.30;99.90;;;;;;5119337;27;20476;-73
2022/06/06 02:09:16;;;;;;;0.63;0.50;;;16.40;99.90;;;;;;5115753;28;20464;-73
2022/06/06 02:11:42;;;;;;;1.00;0.60;;;16.50;99.90;;;;;;5116302;28;20453;-73
2022/06/06 02:14:11;;;;;;;0.80;0.60;;;16.60;99.90;;;;;;5115560;28;20777;-73
2022/06/06 02:16:40;;;;;;;1.30;0.57;;;16.60;99.90;;;;;;5115173;28;20444;-73
2022/06/06 02:19:11;;;;;;;0.87;0.63;;;16.60;99.90;;;;;;5115303;28;20533;-73
2022/06/06 02:21:38;;;;;;;0.90;0.70;;;16.80;99.90;;;;;;5115711;28;20448;-72
2022/06/06 02:24:06;;;;;;;1.00;0.60;;;16.80;99.90;;;;;;5115220;28;20448;-73
2022/06/06 02:26:34;;;;;;;0.67;0.60;;;16.90;99.90;;;;;;5116547;28;20440;-73
2022/06/06 02:29:02;;;;;;;0.90;0.60;;;16.90;99.90;;;;;;5116483;28;20452;-74
2022/06/06 02:31:28;;;;;;;11.70;0.70;;;16.90;99.90;;;;;;5115780;28;20480;-73
2022/06/06 02:33:57;;;;;;;0.70;0.60;;;16.80;99.90;;;;;;5116206;28;20480;-73
2022/06/06 02:36:24;;;;;;;1.10;0.60;;;16.80;99.90;;;;;;5116920;28;20448;-72
2022/06/06 02:38:51;;;;;;;0.90;0.60;;;16.80;99.90;;;;;;5116573;28;20441;-73
2022/06/06 02:41:18;;;;;;;0.83;0.63;;;16.70;99.90;;;;;;5116060;28;20449;-73
2022/06/06 02:43:45;;;;;;;1.13;0.60;;;16.70;99.90;;;;;;5114807;28;20457;-73
2022/06/06 02:46:13;;;;;;;0.90;0.60;;;16.70;99.90;;;;;;5115506;28;20563;-73
2022/06/06 02:48:40;;;;;;;1.23;0.60;;;16.60;99.90;;;;;;5116210;28;20699;-73
2022/06/06 02:51:09;;;;;;;0.90;0.60;;;16.60;99.90;;;;;;5115591;28;20444;-73
2022/06/06 02:53:36;;;;;;;0.70;0.60;;;16.50;99.90;;;;;;5114997;28;20480;-73
2022/06/06 02:56:04;;;;;;;1.00;0.60;;;16.20;99.90;;;;;;5114743;28;20856;-73
2022/06/06 02:58:31;;;;;;;0.80;0.60;;;16.00;99.90;;;;;;5114538;28;20456;-73
2022/06/06 03:01:02;;;;;;;0.77;0.60;;;16.00;99.90;;;;;;5113759;28;20449;-72
2022/06/06 03:03:30;;;;;;;0.77;0.57;;;16.00;99.90;;;;;;5113460;28;20463;-73
2022/06/06 03:06:16;;;;;;;0.90;0.70;;;16.00;99.90;;;;;;5110205;28;20562;-73
2022/06/06 03:08:54;;;;;;;2.03;0.50;;;16.00;99.90;;;;;;5114348;28;20960;-73
2022/06/06 03:11:35;;;;;;;0.80;0.60;;;15.90;99.90;;;;;;5114193;28;20488;-73
2022/06/06 03:14:26;;;;;;;0.70;0.50;;;15.80;99.90;;;;;;5115501;28;20790;-73
2022/06/06 03:23:11;;;;;;;0.90;0.70;;;15.70;99.90;;;;;;5116167;28;20420;-73
2022/06/06 03:25:45;;;;;;;3.23;0.60;;;15.70;99.90;;;;;;5115474;28;20788;-72
2022/06/06 03:28:20;;;;;;;1.37;0.70;;;15.60;99.90;;;;;;5116089;28;20457;-73
2022/06/06 03:30:57;;;;;;;0.90;0.70;;;15.50;99.90;;;;;;5114870;28;20452;-74
2022/06/06 03:33:36;;;;;;;1.10;0.70;;;15.50;99.90;;;;;;5115048;28;20452;-74
2022/06/06 03:36:11;;;;;;;2.80;0.70;;;15.50;99.90;;;;;;5105661;28;20491;-71
2022/06/06 03:38:45;;;;;;;1.00;0.70;;;15.40;99.90;;;;;;5114506;28;20455;-73
2022/06/06 03:41:19;;;;;;;1.10;0.80;;;15.40;99.90;;;;;;5114339;28;20528;-74
2022/06/06 03:43:53;;;;;;;0.90;0.63;;;15.30;99.90;;;;;;5113996;28;20483;-74
2022/06/06 03:46:30;;;;;;;2.07;0.80;;;15.30;99.90;;;;;;5115114;28;20813;-73
2022/06/06 03:49:13;;;;;;;1.63;0.70;;;15.30;99.90;;;;;;5115478;28;20542;-73
2022/06/06 03:51:50;;;;;;;1.00;0.60;;;15.30;99.90;;;;;;5115421;28;20506;-73
2022/06/06 03:54:30;;;;;;;0.90;0.60;;;15.40;99.90;;;;;;5115740;28;20499;-73
2022/06/06 03:57:10;;;;;;;1.10;0.73;;;15.40;99.90;;;;;;5119468;28;20490;-73
2022/06/06 03:59:38;;;;;;;1.73;0.70;;;15.40;99.90;;;;;;5119933;28;20518;-73
2022/06/06 04:02:09;;;;;;;2.07;0.63;;;15.40;99.90;;;;;;5119432;28;20879;-74
2022/06/06 04:04:36;;;;;;;1.20;0.77;;;15.40;99.90;;;;;;5119905;28;20752;-73
2022/06/06 04:07:04;;;;;;;1.20;0.60;;;15.50;99.90;;;;;;5119160;28;20518;-73
2022/06/06 04:09:33;;;;;;;1.10;0.70;;;15.50;99.90;;;;;;5119068;28;20456;-74
2022/06/06 04:12:10;;;;;;;1.60;0.70;;;15.60;99.90;;;;;;5119164;28;20883;-73
2022/06/06 04:14:49;;;;;;;0.90;0.60;;;15.70;99.90;;;;;;5118980;28;20582;-73
2022/06/06 04:17:27;;;;;;;2.67;1.20;;;15.70;99.90;;;;;;5118651;28;20902;-74
2022/06/06 04:20:04;;;;;;;1.20;0.70;;;15.60;99.90;;;;;;5119102;28;20543;-74
2022/06/06 04:22:46;;;;;;;2.10;0.80;;;15.70;99.90;;;;;;5118692;28;20491;-73
2022/06/06 04:25:30;;;;;;;0.90;0.70;;;15.80;99.90;;;;;;5118194;28;20921;-74
2022/06/06 04:28:04;;;;;;;2.20;0.87;;;15.90;99.90;;;;;;5119018;28;20449;-73
2022/06/06 04:30:40;;;;;;;0.90;0.70;;;15.90;99.90;;;;;;5119113;28;20929;-73
2022/06/06 04:33:18;;;;;;;1.77;0.60;;;16.00;99.90;;;;;;5118800;28;20471;-73
2022/06/06 04:35:56;;;;;;;1.40;0.80;;;16.00;99.90;;;;;;5119148;28;20931;-73
2022/06/06 04:38:30;;;;;;;1.53;0.60;;;16.10;99.90;;;;;;5118950;28;20452;-73
2022/06/06 04:41:06;;;;;;;1.40;0.70;;;16.20;99.90;;;;;;5118893;28;20809;-73
2022/06/06 04:43:40;;;;;;;1.03;0.73;;;16.20;99.90;;;;;;5119029;28;20456;-73
2022/06/06 04:46:14;;;;;;;1.13;0.60;;;16.30;99.90;;;;;;5117637;28;20456;-73
2022/06/06 04:48:43;;;;;;;0.80;0.50;;;16.30;99.90;;;;;;5118178;28;20537;-73
2022/06/06 04:51:10;;;;;;;1.10;0.70;;;16.40;99.90;;;;;;5118118;28;20445;-73
2022/06/06 04:53:42;;;;;;;1.13;0.80;;;16.60;99.90;;;;;;5118350;28;20940;-73
2022/06/06 04:56:09;;;;;;;0.77;0.60;;;16.70;99.90;;;;;;5118516;28;20480;-73
2022/06/06 04:58:40;;;;;;;0.90;0.70;;;16.70;99.90;;;;;;5118465;28;20486;-73
2022/06/06 05:01:08;;;;;;;0.90;0.60;;;16.60;99.90;;;;;;5117227;28;20927;-73
2022/06/06 05:03:36;;;;;;;0.80;0.60;;;16.60;99.90;;;;;;5116466;28;20466;-73
2022/06/06 05:06:31;;;;;;;0.90;0.60;;;16.60;99.90;;;;;;5125358;27;20800;-73
2022/06/06 05:09:20;;;;;;;1.67;0.60;;;16.60;99.90;;;;;;5111676;27;20467;-74
2022/06/06 05:11:57;;;;;;;0.87;0.70;;;16.80;99.90;;;;;;5137487;27;20448;-73
2022/06/06 05:14:40;;;;;;;1.53;0.60;;;16.90;99.90;;;;;;5137741;27;20479;-73
2022/06/06 05:17:26;;;;;;;1.97;0.70;;;16.90;99.90;;;;;;5138603;27;20451;-73
2022/06/06 05:20:06;;;;;;;3.13;0.70;;;16.90;99.90;;;;;;5138800;27;20491;-73
2022/06/06 05:23:00;;;;;;;1.03;0.73;;;16.90;99.90;;;;;;5138564;27;20448;-73
2022/06/06 05:25:42;;;;;;;2.93;0.60;;;17.00;99.90;;;;;;5139013;27;20436;-73
2022/06/06 05:28:38;;;;;;;1.07;0.80;;;17.10;99.90;;;;;;5134041;27;20456;-73
2022/06/06 05:31:18;;;;;;;0.80;0.60;;;17.20;99.90;;;;;;5116608;27;20811;-74
2022/06/06 05:33:54;;;;;;;1.67;0.60;;;17.30;92.70;;;;;;5129131;27;20445;-73
2022/06/06 05:36:45;;;;;;;0.77;0.60;;;17.50;94.90;;;;;;5138051;27;20475;-74
2022/06/06 05:39:29;;;;;;;0.90;0.70;;;17.60;90.60;;;;;;5137783;27;20451;-73
2022/06/06 05:42:13;;;;;;;0.70;0.60;;;17.60;54.20;;;;;;5138429;27;20492;-73
2022/06/06 05:44:48;;;;;;;1.23;0.80;;;17.60;52.00;;;;;;5137706;27;20451;-73
2022/06/06 05:47:26;;;;;;;0.80;0.70;;;17.80;55.30;;;;;;5138343;27;20434;-73
2022/06/06 05:50:16;;;;;;;1.43;0.67;;;17.90;42.70;;;;;;5138228;27;20504;-73
2022/06/06 05:53:02;;;;;;;0.83;0.60;;;17.90;26.90;;;;;;5137985;27;20436;-74
2022/06/06 05:55:51;;;;;;;0.73;0.60;;;17.90;27.00;;;;;;5138065;27;20483;-73
2022/06/06 05:58:44;;;;;;;1.10;0.80;;;18.00;29.80;;;;;;5137654;27;20452;-73
2022/06/06 06:01:27;;;;;;;1.60;0.80;;;18.00;29.10;;;;;;5137669;27;20751;-74
2022/06/06 06:04:23;;;;;;;0.90;0.70;;;18.00;34.10;;;;;;5137953;27;20802;-73
2022/06/06 06:06:58;;;;;;;2.60;0.70;;;18.10;30.80;;;;;;5133892;27;20485;-73
2022/06/06 06:09:42;;;;;;;1.00;0.60;;;18.20;12.20;;;;;;5137495;27;20946;-73
2022/06/06 06:12:43;;;;;;;3.50;0.70;;;18.30;10.90;;;;;;5136937;27;20482;-73
2022/06/06 06:15:25;;;;;;;0.80;0.60;;;18.40;16.20;;;;;;5137639;27;20483;-73
2022/06/06 06:17:54;;;;;;;0.80;0.60;;;18.50;1.00;;;;;;5135277;27;20447;-73
2022/06/06 06:20:26;;;;;;;1.00;0.70;;;18.50;1.00;;;;;;5131656;27;20455;-73
2022/06/06 06:22:57;;;;;;;1.03;0.80;;;18.50;1.00;;;;;;5135202;27;20447;-73
2022/06/06 06:25:26;;;;;;;0.87;0.70;;;18.50;1.00;;;;;;5131492;27;20879;-73
2022/06/06 06:27:57;;;;;;;0.97;0.60;;;18.40;1.00;;;;;;5133691;27;20443;-73
2022/06/06 06:30:27;;;;;;;1.10;0.70;;;18.40;9.60;;;;;;5130558;27;20870;-73
2022/06/06 06:33:18;;;;;;;0.93;0.60;;;18.60;15.30;;;;;;5134623;27;20496;-73
2022/06/06 06:35:57;;;;;;;1.10;0.77;;;18.60;1.00;;;;;;5134160;27;20479;-73
2022/06/06 06:38:47;;;;;;;1.83;0.77;;;18.70;1.00;;;;;;5130204;27;20483;-73
2022/06/06 06:41:23;;;;;;;2.00;0.70;;;18.80;1.00;;;;;;5130038;27;20947;-73
2022/06/06 06:44:00;;;;;;;0.90;0.70;;;18.90;1.00;;;;;;5128828;27;20456;-74
2022/06/06 06:46:33;;;;;;;2.30;0.70;;;19.00;1.00;;;;;;5136945;27;20785;-73
2022/06/06 06:49:11;;;;;;;1.60;0.73;;;19.10;1.00;;;;;;5128567;27;20451;-73
2022/06/06 06:51:46;;;;;;;1.10;0.70;;;19.20;1.00;;;;;;5137309;27;20501;-72
2022/06/06 06:54:27;;;;;;;1.23;0.80;;;19.20;1.00;;;;;;5127826;27;20454;-73
2022/06/06 06:57:15;;;;;;;1.00;0.70;;;19.20;1.00;;;;;;5136241;27;20551;-71
2022/06/06 06:59:55;;;;;;;1.13;0.80;;;19.40;1.00;;;;;;5136311;27;20455;-73
2022/06/06 07:08:33;;;;;;;1.00;0.70;;;19.70;1.00;;;;;;5131972;27;20952;-72
2022/06/06 07:11:18;;;;;;;0.80;0.70;;;19.90;1.00;;;;;;5135981;27;20459;-72
2022/06/06 07:13:59;;;;;;;0.80;0.70;;;20.00;1.00;;;;;;5126732;27;20452;-74
2022/06/06 07:16:29;;;;;;;1.70;0.67;;;20.00;1.00;;;;;;5134995;27;20486;-73
2022/06/06 07:19:00;;;;;;;1.10;0.80;;;20.00;1.00;;;;;;5126087;27;20452;-72
2022/06/06 07:21:28;;;;;;;1.50;0.80;;;20.10;1.00;;;;;;5135565;27;20495;-72
2022/06/06 07:24:00;;;;;;;1.00;0.80;;;20.10;1.00;;;;;;5126997;27;20556;-72
2022/06/06 07:26:27;;;;;;;1.30;0.97;;;20.20;99.90;;;;;;5135638;27;20448;-73
2022/06/06 07:28:54;;;;;;;1.20;0.77;;;20.20;99.90;;;;;;5127828;27;20457;-72
2022/06/06 07:31:38;;;;;;;1.00;0.70;;;20.30;99.90;;;;;;5139745;27;20512;-72
2022/06/06 07:34:32;;;;;;;1.17;0.70;;;20.30;58.10;;;;;;5132344;27;20458;-71
2022/06/06 07:37:10;;;;;;;2.00;0.53;;;20.50;99.90;;;;;;5140467;27;20518;-72
2022/06/06 07:39:49;;;;;;;0.77;0.60;;;20.60;99.90;;;;;;5139917;27;20890;-72
2022/06/06 07:42:28;;;;;;;1.03;0.73;;;20.80;52.60;;;;;;5139823;27;20451;-74
2022/06/06 07:45:11;;;;;;;0.90;0.70;;;21.00;99.90;;;;;;5140326;27;20552;-73
2022/06/06 07:47:51;;;;;;;0.80;0.60;;;21.20;1.00;;;;;;5139937;27;20630;-74
2022/06/06 07:50:23;;;;;;;0.90;0.70;;;21.00;1.00;;;;;;5133101;27;20897;-73
2022/06/06 07:52:56;;;;;;;1.57;0.70;;;21.00;99.90;;;;;;5138575;27;20443;-72
2022/06/06 07:55:27;;;;;;;0.77;0.60;;;21.10;1.00;;;;;;5140072;27;20530;-72
2022/06/06 07:58:02;;;;;;;0.90;0.60;;;21.20;99.90;;;;;;5139691;27;20939;-72
2022/06/06 08:00:29;;;;;;;0.90;0.60;;;21.30;99.90;;;;;;5139969;27;20500;-72
2022/06/06 08:03:08;;;;;;;0.80;0.60;;;21.50;1.00;;;;;;5135603;27;20569;-74
2022/06/06 08:06:09;;;;;;;1.37;0.80;;;21.40;1.00;;;;;;5133967;27;20510;-73
2022/06/06 08:08:54;;;;;;;0.80;0.70;;;21.30;10.70;;;;;;5138752;27;20458;-73
2022/06/06 08:11:35;;;;;;;0.80;0.70;;;21.30;99.90;;;;;;5139315;27;20496;-72
2022/06/06 08:14:14;;;;;;;0.80;0.60;;;21.40;1.00;;;;;;5138278;27;20451;-74
2022/06/06 08:16:47;;;;;;;0.77;0.60;;;21.50;1.00;;;;;;5136869;27;20483;-72
2022/06/06 08:19:33;;;;;;;1.60;0.73;;;21.70;1.00;;;;;;5137413;27;20450;-72
2022/06/06 08:22:01;;;;;;;0.80;0.70;;;21.80;99.90;;;;;;5139217;27;20447;-72
2022/06/06 08:24:33;;;;;;;0.70;0.50;;;21.60;99.90;;;;;;5137983;27;20456;-71
2022/06/06 08:27:04;;;;;;;1.07;0.70;;;21.70;1.00;;;;;;5139700;27;20435;-74
2022/06/06 08:29:35;;;;;;;0.90;0.60;;;22.00;99.90;;;;;;5138737;27;20812;-72
2022/06/06 08:32:02;;;;;;;0.73;0.50;;;22.10;99.90;;;;;;5137407;27;20455;-74
2022/06/06 08:34:29;;;;;;;0.80;0.50;;;22.30;99.90;;;;;;5135705;27;20456;-71
2022/06/06 08:37:29;;;;;;;0.83;0.50;;;22.20;1.00;;;;;;5135829;27;20475;-73
2022/06/06 08:40:08;;;;;;;0.93;0.50;;;22.00;1.00;;;;;;5136802;27;20456;-73
2022/06/06 08:42:45;;;;;;;0.60;0.50;;;21.80;1.00;;;;;;5135975;27;20478;-73
2022/06/06 08:45:46;;;;;;;1.10;0.70;;;21.90;1.00;;;;;;5136564;27;20504;-73
2022/06/06 08:48:28;;;;;;;0.70;0.50;;;22.00;1.00;;;;;;5136920;27;20455;-73
2022/06/06 08:51:02;;;;;;;2.90;0.90;;;22.00;1.00;;;;;;5136881;27;20955;-73
2022/06/06 08:53:59;;;;;;;1.20;0.80;;;22.20;1.00;;;;;;5137377;27;20448;-72
2022/06/06 08:57:04;;;;;;;0.67;0.50;;;22.20;1.00;;;;;;5135239;27;20480;-73
2022/06/06 09:00:08;;;;;;;0.70;0.50;;;22.10;1.00;;;;;;5134263;27;20547;-73
2022/06/06 09:03:30;;;;;;;0.87;0.57;;;22.20;1.00;;;;;;5134791;27;20435;-73
2022/06/06 09:06:23;;;;;;;0.60;0.40;;;22.50;1.00;;;;;;5136503;27;20475;-72
2022/06/06 09:09:25;;;;;;;1.27;0.50;;;22.60;1.00;;;;;;5137271;27;20471;-73
2022/06/06 09:12:26;;;;;;;0.60;0.50;;;22.50;1.00;;;;;;5137057;27;20436;-73
2022/06/06 09:15:32;;;;;;;1.10;0.40;;;22.70;1.00;;;;;;5137632;27;20504;-72
2022/06/06 09:18:41;;;;;;;0.70;0.50;;;23.00;1.00;;;;;;5079107;27;20500;-73
2022/06/06 09:21:47;;;;;;;0.57;0.40;;;23.30;1.00;;;;;;5135894;27;20477;-72
2022/06/06 09:24:45;;;;;;;0.80;0.50;;;23.00;1.00;;;;;;5134735;27;20451;-72
2022/06/06 09:27:40;;;;;;;0.50;0.40;;;22.80;1.00;;;;;;5135108;27;20439;-72
2022/06/06 09:30:19;;;;;;;0.60;0.40;;;22.70;1.00;;;;;;5132940;27;20543;-73
2022/06/06 09:33:28;;;;;;;0.50;0.40;;;22.70;1.00;;;;;;5136079;27;20729;-72
2022/06/06 09:36:15;;;;;;;0.60;0.50;;;22.80;1.00;;;;;;5137949;27;20439;-72
2022/06/06 09:39:04;;;;;;;1.90;0.40;;;22.90;1.00;;;;;;5136037;27;20967;-73
2022/06/06 09:41:40;;;;;;;0.60;0.50;;;22.90;1.00;;;;;;5129979;27;20463;-73
2022/06/06 09:44:22;;;;;;;0.80;0.80;;;23.00;1.00;;;;;;5128350;27;20467;-71
2022/06/06 09:47:32;;;;;;;0.60;0.40;;;23.10;1.00;;;;;;5134304;27;20519;-72
2022/06/06 09:50:36;;;;;;;1.80;0.43;;;23.10;1.00;;;;;;5131994;27;20464;-73
2022/06/06 10:00:20;;;;;;;0.60;0.40;;;23.50;1.00;;;;;;5124004;27;20453;-72
2022/06/06 10:03:44;;;;;;;0.70;0.50;;;23.70;1.00;;;;;;5120852;27;20893;-72
2022/06/06 10:06:50;;;;;;;1.03;0.40;;;23.70;1.00;;;;;;5025730;28;20476;-75
2022/06/06 10:09:47;;;;;;;0.50;0.40;;;24.00;1.00;;;;;;5096116;27;20808;-72
2022/06/06 10:12:39;;;;;;;0.50;0.40;;;24.30;1.00;;;;;;5118979;27;20456;-74
2022/06/06 10:15:31;;;;;;;0.90;0.53;;;24.30;1.00;;;;;;5116096;27;20462;-72
2022/06/06 10:18:24;;;;;;;0.87;0.50;;;24.50;1.00;;;;;;5099974;27;20484;-73
2022/06/06 10:21:11;;;;;;;1.83;0.63;;;24.50;1.00;;;;;;5130132;27;20904;-73
2022/06/06 10:23:57;;;;;;;0.70;0.50;;;25.00;1.00;;;;;;5129018;27;20456;-72
2022/06/06 10:26:58;;;;;;;0.70;0.50;;;25.30;1.00;;;;;;5127647;27;20458;-72
2022/06/06 10:33:10;;;;;;;1.00;0.50;;;24.60;1.00;;;;;;5123209;27;20458;-73
2022/06/06 10:35:48;;;;;;;0.83;0.40;;;24.40;1.00;;;;;;5112470;27;20463;-72
2022/06/06 10:38:56;;;;;;;1.03;0.50;;;24.70;1.00;;;;;;5127763;27;21161;-73
2022/06/06 10:41:48;;;;;;;0.60;0.50;;;25.20;1.00;;;;;;5031894;28;20874;-73
2022/06/06 10:44:31;;;;;;;0.63;0.40;;;25.00;1.00;;;;;;5118220;27;20461;-72
2022/06/06 10:47:13;;;;;;;0.77;0.53;;;25.00;1.00;;;;;;5128056;27;20775;-73
2022/06/06 10:49:52;;;;;;;1.73;0.70;;;24.80;1.00;;;;;;5129990;27;20509;-73
2022/06/06 10:52:54;;;;;;;2.47;0.50;;;24.90;1.00;;;;;;5135015;27;20887;-73
2022/06/06 10:56:03;;;;;;;0.90;0.57;;;24.50;1.00;;;;;;5130429;27;20487;-73
2022/06/06 10:58:58;;;;;;;0.93;0.60;;;24.20;1.00;;;;;;5127061;27;20562;-73
2022/06/06 11:02:16;;;;;;;0.90;0.70;;;24.30;1.00;;;;;;5130388;28;20459;-73
2022/06/06 11:05:07;;;;;;;0.70;0.50;;;24.10;1.00;;;;;;5025185;28;20924;-73
2022/06/06 11:08:19;;;;;;;0.60;0.50;;;24.30;1.00;;;;;;5033890;28;20591;-73
2022/06/06 11:11:22;;;;;;;1.00;0.40;;;24.60;1.00;;;;;;5089118;27;20483;-73
2022/06/06 11:14:00;;;;;;;0.80;0.50;;;24.80;1.00;;;;;;5133498;27;20467;-73
2022/06/06 11:16:55;;;;;;;1.63;0.50;;;24.60;1.00;;;;;;5138863;27;20475;-73
2022/06/06 11:20:08;;;;;;;0.60;0.40;;;24.60;1.00;;;;;;5118560;28;20972;-73
2022/06/06 11:22:39;;;;;;;0.50;0.40;;;24.70;1.00;;;;;;5119104;28;20914;-74
2022/06/06 11:25:11;;;;;;;0.90;0.40;;;24.60;1.00;;;;;;5118720;28;20499;-73
2022/06/06 11:28:06;;;;;;;0.63;0.50;;;24.70;1.00;;;;;;5118351;28;20529;-74
2022/06/06 11:31:02;;;;;;;0.60;0.40;;;25.00;1.00;;;;;;5117723;28;20907;-73
2022/06/06 11:34:20;;;;;;;0.80;0.40;;;24.90;1.00;;;;;;5118404;28;20927;-74
2022/06/06 11:37:28;;;;;;;1.27;0.50;;;25.10;1.00;;;;;;5120049;28;20583;-74
2022/06/06 11:40:32;;;;;;;4.83;1.10;;;25.30;1.00;;;;;;5117860;28;20456;-74
2022/06/06 11:43:44;;;;;;;0.60;0.50;;;25.40;1.00;;;;;;5116931;28;20954;-74
2022/06/06 11:46:56;;;;;;;1.00;0.80;;;25.30;1.00;;;;;;5079104;28;20935;-71
2022/06/06 11:49:53;;;;;;;1.97;0.73;;;24.80;1.00;;;;;;5116079;28;20937;-72
2022/06/06 11:52:56;;;;;;;1.57;0.90;;;24.70;1.00;;;;;;5117415;28;20871;-73
2022/06/06 11:55:39;;;;;;;0.80;0.60;;;25.00;1.00;;;;;;5085196;28;20918;-74
2022/06/06 11:58:42;;;;;;;0.80;0.50;;;24.50;1.00;;;;;;5127262;27;20536;-73
2022/06/06 12:01:38;;;;;;;4.80;4.20;;;24.30;1.00;;;;;;5130818;27;20917;-73
2022/06/06 12:04:44;;;;;;;1.87;0.90;;;24.50;1.00;;;;;;5135960;27;20452;-72
2022/06/06 12:07:41;;;;;;;0.60;0.40;;;24.60;1.00;;;;;;5065174;28;20473;-73
2022/06/06 12:10:18;;;;;;;0.77;0.50;;;24.60;1.00;;;;;;5111128;28;20444;-74
2022/06/06 12:13:12;;;;;;;0.93;0.50;;;24.50;1.00;;;;;;5114666;28;20456;-72
2022/06/06 12:16:08;;;;;;;0.97;0.50;;;24.40;1.00;;;;;;5115832;28;20452;-72
2022/06/06 12:18:51;;;;;;;0.80;0.60;;;24.20;1.00;;;;;;5115587;28;20476;-73
2022/06/06 12:21:52;;;;;;;0.50;0.40;;;24.00;1.00;;;;;;5116631;28;20806;-73
2022/06/06 12:24:59;;;;;;;0.53;0.40;;;23.90;1.00;;;;;;5109873;28;20489;-72
2022/06/06 12:27:36;;;;;;;0.70;0.60;;;23.80;1.00;;;;;;5115543;28;20436;-74
2022/06/06 12:30:15;;;;;;;0.60;0.50;;;23.60;1.00;;;;;;5114112;28;20535;-72
2022/06/06 12:33:03;;;;;;;0.50;0.30;;;23.70;1.00;;;;;;5115954;28;20883;-72
2022/06/06 12:35:37;;;;;;;0.50;0.40;;;24.00;1.00;;;;;;5117000;28;20535;-74
2022/06/06 12:38:17;;;;;;;0.50;0.30;;;24.30;1.00;;;;;;5117000;28;20537;-72
2022/06/06 12:41:01;;;;;;;1.13;0.40;;;25.00;1.00;;;;;;5115866;28;20501;-73
2022/06/06 12:43:42;;;;;;;0.83;0.73;;;25.60;1.00;;;;;;5115627;28;20458;-73
2022/06/06 12:46:31;;;;;;;0.70;0.53;;;25.70;1.00;;;;;;5114123;28;20445;-72
2022/06/06 12:49:13;;;;;;;0.50;0.40;;;25.40;1.00;;;;;;5114806;28;20460;-73
2022/06/06 12:51:55;;;;;;;0.63;0.40;;;25.70;1.00;;;;;;5115097;28;20809;-73
2022/06/06 12:57:52;;;;;;;0.60;0.40;;;26.80;1.00;;;;;;5112862;28;20494;-73
2022/06/06 13:01:37;;;;;;;0.80;0.50;;;27.50;1.00;;;;;;5114820;28;20528;-73
2022/06/06 13:03:25;;;;;;;0.60;0.40;;;26.80;1.00;;;;;;5113713;28;20468;-73
2022/06/06 13:05:58;;;;;;;0.50;0.40;;;27.00;1.00;;;;;;5116693;27;20525;-73
2022/06/06 13:08:53;;;;;;;0.50;0.43;;;26.80;1.00;;;;;;5116092;28;20533;-73
2022/06/06 13:11:56;;;;;;;0.70;0.60;;;26.30;1.00;;;;;;5116036;28;20577;-73
2022/06/06 13:14:49;;;;;;;1.27;0.50;;;26.00;1.00;;;;;;5115966;28;21173;-73
2022/06/06 13:17:28;;;;;;;0.70;0.50;;;25.40;1.00;;;;;;5115316;28;20550;-73
2022/06/06 13:20:09;;;;;;;0.50;0.30;;;25.00;1.00;;;;;;5115216;28;20814;-73
2022/06/06 13:22:56;;;;;;;0.80;0.50;;;24.80;1.00;;;;;;5114837;28;20888;-73
2022/06/06 13:25:34;;;;;;;0.40;0.30;;;24.60;1.00;;;;;;5116277;28;20903;-73
2022/06/06 13:28:11;;;;;;;0.90;0.60;;;24.60;1.00;;;;;;5094634;28;20523;-73
2022/06/06 13:30:58;;;;;;;0.80;0.60;;;24.30;1.00;;;;;;5108454;28;20444;-73
2022/06/06 13:33:41;;;;;;;0.90;0.50;;;24.10;1.00;;;;;;5114112;28;20468;-73
2022/06/06 13:36:17;;;;;;;0.80;0.57;;;24.00;1.00;;;;;;5114024;28;20494;-73
2022/06/06 13:38:57;;;;;;;0.87;0.47;;;23.90;1.00;;;;;;5115258;28;20488;-73
2022/06/06 13:41:38;;;;;;;0.63;0.47;;;23.70;1.00;;;;;;5114573;28;20452;-73
2022/06/06 13:44:23;;;;;;;1.20;0.53;;;23.60;1.00;;;;;;5114851;28;20444;-72
2022/06/06 13:47:02;;;;;;;1.07;0.53;;;23.40;1.00;;;;;;5114650;28;20452;-73
2022/06/06 13:49:52;;;;;;;0.80;0.60;;;23.30;1.00;;;;;;5113779;28;20807;-73
2022/06/06 13:52:48;;;;;;;1.47;0.50;;;23.20;1.00;;;;;;5115222;28;20448;-73
2022/06/06 13:55:28;;;;;;;0.70;0.50;;;23.10;1.00;;;;;;5115816;28;20444;-73
2022/06/06 13:58:07;;;;;;;0.80;0.60;;;23.00;1.00;;;;;;5115629;28;20480;-73
2022/06/06 14:00:44;;;;;;;0.60;0.40;;;22.90;1.00;;;;;;5115546;27;20452;-72
2022/06/06 14:03:26;;;;;;;0.53;0.30;;;23.00;1.00;;;;;;5115012;28;20456;-73
2022/06/06 14:06:22;;;;;;;0.47;0.40;;;22.90;1.00;;;;;;5121671;27;20552;-73
2022/06/06 14:08:52;;;;;;;1.03;0.40;;;22.90;1.00;;;;;;5135730;27;20454;-73
2022/06/06 14:12:00;;;;;;;1.93;0.50;;;22.90;1.00;;;;;;5135821;27;20455;-74
2022/06/06 14:14:31;;;;;;;0.60;0.40;;;22.90;1.00;;;;;;5084936;27;20456;-72
2022/06/06 14:17:01;;;;;;;0.60;0.50;;;22.60;1.00;;;;;;5132453;27;20447;-73
2022/06/06 14:19:36;;;;;;;0.60;0.50;;;22.50;1.00;;;;;;5134139;27;20971;-74
2022/06/06 14:22:07;;;;;;;0.60;0.50;;;22.50;1.00;;;;;;5133544;27;20520;-74
2022/06/06 14:24:37;;;;;;;0.70;0.57;;;22.60;1.00;;;;;;5133637;27;20452;-74
2022/06/06 14:27:09;;;;;;;0.87;0.50;;;22.80;1.00;;;;;;5132300;27;20806;-73
2022/06/06 14:29:38;;;;;;;1.23;0.50;;;22.80;1.00;;;;;;5131757;27;20541;-74
2022/06/06 14:32:19;;;;;;;0.80;0.50;;;23.00;1.00;;;;;;5134075;27;20826;-73